Time;durP1;ratioP1;P1;durP2;ratioP2;P2;SDS_P1;SDS_P2;PMS_P1;PMS_P2;Temp;Humidity;BMP_temperature;BMP_pressure;BME280_temperature;BME280_humidity;BME280_pressure;Samples;Min_cycle;Max_cycle;Signal;HPM_P1;HPM_P2
2022/12/13 00:00:13;;;;;;;1999.90;999.90;;;1.40;99.90;;;;;;4918428;29;20051;-82
2022/12/13 00:02:43;;;;;;;1999.90;999.90;;;1.30;99.90;;;;;;4935444;29;20431;-82
2022/12/13 00:05:09;;;;;;;1999.90;999.90;;;1.30;99.90;;;;;;4916863;29;20021;-82
2022/12/13 00:07:35;;;;;;;1999.90;999.90;;;1.30;99.90;;;;;;4915900;29;20030;-82
2022/12/13 00:10:00;;;;;;;1999.90;999.90;;;1.30;99.90;;;;;;4916384;29;20103;-82
2022/12/13 00:12:26;;;;;;;1999.90;999.90;;;1.20;99.90;;;;;;4916507;29;20449;-82
2022/12/13 00:14:52;;;;;;;1999.90;999.90;;;1.20;99.90;;;;;;4916326;29;20099;-82
2022/12/13 00:17:18;;;;;;;1999.90;999.90;;;1.20;99.90;;;;;;4916285;29;20096;-82
2022/12/13 00:19:43;;;;;;;1999.90;999.90;;;1.20;99.90;;;;;;4916226;29;20705;-82
2022/12/13 00:22:09;;;;;;;1999.90;999.90;;;1.10;99.90;;;;;;4916518;29;20076;-82
2022/12/13 00:24:34;;;;;;;1999.90;999.90;;;1.10;99.90;;;;;;4915996;29;20522;-81
2022/12/13 00:27:00;;;;;;;1999.90;999.90;;;1.00;99.90;;;;;;4899192;29;20036;-81
2022/12/13 00:29:25;;;;;;;1999.90;999.90;;;0.90;99.90;;;;;;4916365;29;20028;-81
2022/12/13 00:31:51;;;;;;;1999.90;999.90;;;1.00;99.90;;;;;;4916365;29;20052;-81
2022/12/13 00:34:17;;;;;;;1999.90;999.90;;;0.90;99.90;;;;;;4916490;29;20448;-81
2022/12/13 00:36:43;;;;;;;1999.90;999.90;;;0.90;99.90;;;;;;4916235;29;20031;-81
2022/12/13 00:39:12;;;;;;;1999.90;999.90;;;0.90;99.90;;;;;;4916453;29;20103;-81
2022/12/13 00:41:38;;;;;;;1999.90;999.90;;;0.90;99.90;;;;;;4899195;29;20036;-81
2022/12/13 00:44:04;;;;;;;1999.90;999.90;;;0.80;99.90;;;;;;4916215;29;20029;-81
2022/12/13 00:46:30;;;;;;;1999.90;999.90;;;0.80;99.90;;;;;;4900980;29;20399;-81
2022/12/13 00:48:58;;;;;;;1999.90;999.90;;;0.90;99.90;;;;;;4902577;29;20039;-81
2022/12/13 00:51:25;;;;;;;1999.90;999.90;;;0.90;99.90;;;;;;4902883;29;20028;-81
2022/12/13 00:53:50;;;;;;;1999.90;999.90;;;0.80;99.90;;;;;;4919727;29;20036;-81
2022/12/13 00:56:20;;;;;;;1999.90;999.90;;;0.80;99.90;;;;;;4919592;29;20128;-81
2022/12/13 00:58:46;;;;;;;1999.90;999.90;;;0.90;99.90;;;;;;4902619;29;20032;-81
2022/12/13 01:01:14;;;;;;;1999.90;999.90;;;0.80;99.90;;;;;;4902521;29;20056;-81
2022/12/13 01:03:40;;;;;;;1999.90;999.90;;;0.80;99.90;;;;;;4902753;29;20067;-81
2022/12/13 01:06:17;;;;;;;1999.90;999.90;;;0.80;99.90;;;;;;4919556;29;20492;-81
2022/12/13 01:08:44;;;;;;;1999.90;999.90;;;0.80;99.90;;;;;;4918939;29;20028;-81
2022/12/13 01:11:11;;;;;;;1999.90;999.90;;;0.80;99.90;;;;;;4919167;29;20051;-81
2022/12/13 01:13:37;;;;;;;1999.90;999.90;;;0.80;99.90;;;;;;4919207;29;20559;-81
2022/12/13 01:16:06;;;;;;;1999.90;999.90;;;0.70;99.90;;;;;;4919042;29;20025;-81
2022/12/13 01:18:32;;;;;;;1999.90;999.90;;;0.70;99.90;;;;;;4919226;29;20024;-81
2022/12/13 01:20:59;;;;;;;1999.90;999.90;;;0.60;99.90;;;;;;4919150;29;20028;-81
2022/12/13 01:23:26;;;;;;;1999.90;999.90;;;0.70;99.90;;;;;;4923947;29;20126;-81
2022/12/13 01:25:52;;;;;;;1999.90;999.90;;;0.70;99.90;;;;;;4930263;29;20039;-81
2022/12/13 01:28:18;;;;;;;1999.90;999.90;;;0.60;99.90;;;;;;4919364;29;20099;-81
2022/12/13 01:30:43;;;;;;;1999.90;999.90;;;0.60;99.90;;;;;;4919093;29;20028;-81
2022/12/13 01:33:09;;;;;;;1999.90;999.90;;;0.60;99.90;;;;;;4917661;29;20032;-81
2022/12/13 01:35:35;;;;;;;1999.90;999.90;;;0.60;99.90;;;;;;4902001;29;20020;-81
2022/12/13 01:38:00;;;;;;;1999.90;999.90;;;0.60;99.90;;;;;;4918752;29;20033;-81
2022/12/13 01:40:26;;;;;;;1999.90;999.90;;;0.60;99.90;;;;;;4918938;29;20032;-81
2022/12/13 01:42:52;;;;;;;1999.90;999.90;;;0.60;99.90;;;;;;4918681;29;20031;-81
2022/12/13 01:45:27;;;;;;;1999.90;999.90;;;0.50;99.90;;;;;;4918786;29;20032;-81
2022/12/13 01:48:01;;;;;;;1999.90;999.90;;;0.50;99.90;;;;;;4917361;29;20460;-81
2022/12/13 01:50:37;;;;;;;1999.90;999.90;;;0.50;99.90;;;;;;4918878;29;20550;-81
2022/12/13 01:53:06;;;;;;;1999.90;999.90;;;0.50;99.90;;;;;;4918601;29;20035;-81
2022/12/13 01:55:35;;;;;;;1999.90;999.90;;;0.40;99.90;;;;;;4901603;29;20024;-81
2022/12/13 01:58:03;;;;;;;1999.90;999.90;;;0.40;99.90;;;;;;4918304;29;20396;-81
2022/12/13 02:00:29;;;;;;;1999.90;999.90;;;0.40;99.90;;;;;;4918557;29;20056;-81
2022/12/13 02:02:58;;;;;;;1999.90;999.90;;;0.40;99.90;;;;;;4918393;29;20502;-81
2022/12/13 02:05:38;;;;;;;1999.90;999.90;;;0.40;99.90;;;;;;4918440;29;20102;-81
2022/12/13 02:08:06;;;;;;;1999.90;999.90;;;0.50;99.90;;;;;;4916666;29;20035;-81
2022/12/13 02:10:32;;;;;;;1999.90;999.90;;;0.40;99.90;;;;;;4918289;29;20035;-81
2022/12/13 02:12:58;;;;;;;1999.90;999.90;;;0.40;99.90;;;;;;4918307;29;20029;-81
2022/12/13 02:15:34;;;;;;;1999.90;999.90;;;0.40;99.90;;;;;;4917336;29;20035;-81
2022/12/13 02:18:19;;;;;;;1999.90;999.90;;;0.40;99.90;;;;;;4901277;29;20067;-81
2022/12/13 02:21:10;;;;;;;1999.90;999.90;;;0.30;99.90;;;;;;4918055;29;20060;-81
2022/12/13 02:23:54;;;;;;;1999.90;999.90;;;0.30;99.90;;;;;;4922883;29;20051;-81
2022/12/13 02:26:59;;;;;;;1999.90;999.90;;;0.40;99.90;;;;;;4919779;29;20553;-81
2022/12/13 02:29:43;;;;;;;1999.90;999.90;;;0.40;99.90;;;;;;4859742;29;20034;-81
2022/12/13 02:32:21;;;;;;;1999.90;999.90;;;0.40;99.90;;;;;;4844575;29;20044;-81
2022/12/13 02:35:01;;;;;;;1999.90;999.90;;;0.40;99.90;;;;;;4859784;29;20052;-81
2022/12/13 02:37:58;;;;;;;1999.90;999.90;;;0.40;99.90;;;;;;4859629;29;20037;-81
2022/12/13 02:40:33;;;;;;;1999.90;999.90;;;0.40;99.90;;;;;;4859783;29;20029;-81
2022/12/13 02:43:13;;;;;;;1999.90;999.90;;;0.40;99.90;;;;;;4843948;29;20029;-81
2022/12/13 02:45:52;;;;;;;1999.90;999.90;;;0.40;99.90;;;;;;4859507;29;20442;-81
2022/12/13 02:48:26;;;;;;;1999.90;999.90;;;0.40;99.90;;;;;;4859482;29;20450;-81
2022/12/13 02:50:53;;;;;;;1999.90;999.90;;;0.30;99.90;;;;;;4859189;29;20030;-81
2022/12/13 02:53:21;;;;;;;1999.90;999.90;;;0.30;99.90;;;;;;4859379;29;20082;-81
2022/12/13 02:55:47;;;;;;;1999.90;999.90;;;0.30;99.90;;;;;;4859023;29;20030;-81
2022/12/13 02:58:18;;;;;;;1999.90;999.90;;;0.30;99.90;;;;;;4859547;29;20086;-81
2022/12/13 03:00:49;;;;;;;1999.90;999.90;;;0.30;99.90;;;;;;4859353;29;20097;-81
2022/12/13 03:03:33;;;;;;;1999.90;999.90;;;0.30;99.90;;;;;;4895454;29;20415;-81
2022/12/13 03:06:36;;;;;;;1999.90;999.90;;;0.30;99.90;;;;;;4936382;29;20030;-81
2022/12/13 03:09:08;;;;;;;1999.90;999.90;;;0.30;99.90;;;;;;4935223;29;20065;-81
2022/12/13 03:15:06;;;;;;;1999.90;999.90;;;0.20;99.90;;;;;;4925054;29;20774;-81
2022/12/13 03:17:39;;;;;;;1999.90;999.90;;;0.10;99.90;;;;;;4936054;29;20028;-81
2022/12/13 03:20:06;;;;;;;1999.90;999.90;;;0.10;99.90;;;;;;4918859;29;20039;-81
2022/12/13 03:22:34;;;;;;;1999.90;999.90;;;0.00;99.90;;;;;;4936274;29;20047;-81
2022/12/13 03:25:00;;;;;;;1999.90;999.90;;;0.00;99.90;;;;;;4935529;29;20060;-81
2022/12/13 03:27:26;;;;;;;1999.90;999.90;;;-0.10;99.90;;;;;;4918806;29;20027;-81
2022/12/13 03:29:51;;;;;;;1999.90;999.90;;;-0.20;99.90;;;;;;4935997;29;20406;-81
2022/12/13 03:32:17;;;;;;;1999.90;999.90;;;-0.20;99.90;;;;;;4936233;29;20499;-81
2022/12/13 03:34:43;;;;;;;1999.90;999.90;;;-0.20;99.90;;;;;;4918678;29;20103;-81
2022/12/13 03:37:08;;;;;;;1999.90;999.90;;;-0.30;99.90;;;;;;4934703;29;20436;-81
2022/12/13 03:39:34;;;;;;;1999.90;999.90;;;-0.30;99.90;;;;;;4936022;29;20111;-81
2022/12/13 03:42:00;;;;;;;1999.90;999.90;;;-0.40;99.90;;;;;;4936135;29;20513;-81
2022/12/13 03:44:26;;;;;;;1999.90;999.90;;;-0.40;99.90;;;;;;4935783;29;20031;-81
2022/12/13 03:46:51;;;;;;;1999.90;999.90;;;-0.40;99.90;;;;;;4935459;29;20032;-81
2022/12/13 03:49:17;;;;;;;1999.90;999.90;;;-0.50;99.90;;;;;;4934208;29;20032;-81
2022/12/13 03:51:43;;;;;;;1999.90;999.90;;;-0.50;99.90;;;;;;4918504;29;20028;-81
2022/12/13 03:54:08;;;;;;;1999.90;999.90;;;-0.60;99.90;;;;;;4935674;29;20024;-81
2022/12/13 03:56:34;;;;;;;1999.90;999.90;;;-0.60;99.90;;;;;;4935477;29;20016;-81
2022/12/13 03:59:01;;;;;;;1999.90;999.90;;;-0.60;99.90;;;;;;4935424;29;20059;-81
2022/12/13 04:01:26;;;;;;;1999.90;999.90;;;-0.70;99.90;;;;;;4935402;29;20019;-81
2022/12/13 04:03:52;;;;;;;1999.90;999.90;;;-0.70;99.90;;;;;;4927268;29;20124;-81
2022/12/13 04:06:17;;;;;;;1999.90;999.90;;;-0.70;99.90;;;;;;4916422;29;20038;-81
2022/12/13 04:08:43;;;;;;;1999.90;999.90;;;-0.70;99.90;;;;;;4916308;29;20484;-81
2022/12/13 04:13:53;;;;;;;1999.90;999.90;;;-0.70;99.90;;;;;;4916494;29;20091;-81
2022/12/13 04:16:19;;;;;;;1999.90;999.90;;;-0.80;99.90;;;;;;4916419;29;20544;-81
2022/12/13 04:18:45;;;;;;;1999.90;999.90;;;-0.80;99.90;;;;;;4899397;29;20118;-81
2022/12/13 04:21:10;;;;;;;1999.90;999.90;;;-0.80;99.90;;;;;;4902428;29;20059;-81
2022/12/13 04:23:36;;;;;;;1999.90;999.90;;;-0.80;99.90;;;;;;4895283;29;20192;-81
2022/12/13 04:26:02;;;;;;;1999.90;999.90;;;-0.80;99.90;;;;;;4890177;29;20080;-81
2022/12/13 04:28:27;;;;;;;1999.90;999.90;;;-0.80;99.90;;;;;;4900056;29;20560;-81
2022/12/13 04:30:53;;;;;;;1999.90;999.90;;;-0.80;99.90;;;;;;4901205;29;20032;-82
2022/12/13 04:33:20;;;;;;;1999.90;999.90;;;-0.80;99.90;;;;;;4901127;29;20378;-82
2022/12/13 04:35:46;;;;;;;1999.90;999.90;;;-0.80;99.90;;;;;;4901417;29;20056;-81
2022/12/13 04:38:12;;;;;;;1999.90;999.90;;;-0.80;99.90;;;;;;4901229;29;20040;-81
2022/12/13 04:40:37;;;;;;;1999.90;999.90;;;-0.80;99.90;;;;;;4901124;29;20027;-81
2022/12/13 04:43:03;;;;;;;1999.90;999.90;;;-0.90;99.90;;;;;;4901022;29;20060;-81
2022/12/13 04:45:29;;;;;;;1999.90;999.90;;;-0.80;99.90;;;;;;4900751;29;20107;-81
2022/12/13 04:47:54;;;;;;;1999.90;999.90;;;-0.90;99.90;;;;;;4900896;29;20084;-81
2022/12/13 04:50:20;;;;;;;1999.90;999.90;;;-0.90;99.90;;;;;;4899744;29;20411;-81
2022/12/13 04:52:46;;;;;;;1999.90;999.90;;;-0.90;99.90;;;;;;4901227;29;20108;-81
2022/12/13 04:55:12;;;;;;;1999.90;999.90;;;-0.90;99.90;;;;;;4899841;29;20052;-82
2022/12/13 04:57:38;;;;;;;1999.90;999.90;;;-0.90;99.90;;;;;;4901024;29;20029;-82
2022/12/13 05:00:05;;;;;;;1999.90;999.90;;;-0.90;99.90;;;;;;4901092;29;20029;-82
2022/12/13 05:02:31;;;;;;;1999.90;999.90;;;-0.90;99.90;;;;;;4901192;29;20120;-82
2022/12/13 05:04:57;;;;;;;1999.90;999.90;;;-0.90;99.90;;;;;;4899518;29;20500;-82
2022/12/13 05:07:24;;;;;;;1999.90;999.90;;;-0.90;99.90;;;;;;4899630;29;20043;-82
2022/12/13 05:09:49;;;;;;;1999.90;999.90;;;-0.90;99.90;;;;;;4899355;29;20040;-82
2022/12/13 05:12:15;;;;;;;1999.90;999.90;;;-0.90;99.90;;;;;;4900460;29;20033;-82
2022/12/13 05:14:41;;;;;;;1999.90;999.90;;;-1.00;99.90;;;;;;4899367;29;20032;-82
2022/12/13 05:17:06;;;;;;;1999.90;999.90;;;-1.00;99.90;;;;;;4900544;29;20033;-82
2022/12/13 05:19:32;;;;;;;1999.90;999.90;;;-1.00;99.90;;;;;;4900509;29;20028;-82
2022/12/13 05:21:59;;;;;;;1999.90;999.90;;;-1.00;99.90;;;;;;4900567;29;20123;-82
2022/12/13 05:24:24;;;;;;;1999.90;999.90;;;-1.00;99.90;;;;;;4922319;29;20048;-82
2022/12/13 05:26:50;;;;;;;1999.90;999.90;;;-1.00;99.90;;;;;;4937883;29;20039;-82
2022/12/13 05:29:16;;;;;;;1999.90;999.90;;;-1.00;99.90;;;;;;4934339;29;20032;-82
2022/12/13 05:31:42;;;;;;;1999.90;999.90;;;-1.00;99.90;;;;;;4918310;29;20028;-82
2022/12/13 05:34:07;;;;;;;1999.90;999.90;;;-1.10;99.90;;;;;;4919165;29;20024;-82
2022/12/13 05:36:33;;;;;;;1999.90;999.90;;;-1.10;99.90;;;;;;4919160;29;20368;-82
2022/12/13 05:38:59;;;;;;;1999.90;999.90;;;-1.10;99.90;;;;;;4919052;29;20487;-82
2022/12/13 05:41:28;;;;;;;1999.90;999.90;;;-1.10;99.90;;;;;;4917715;29;20067;-82
2022/12/13 05:43:53;;;;;;;1999.90;999.90;;;-1.10;99.90;;;;;;4918904;29;20027;-81
2022/12/13 05:46:19;;;;;;;1999.90;999.90;;;-1.10;99.90;;;;;;4918896;29;20032;-81
2022/12/13 05:48:45;;;;;;;1999.90;999.90;;;-1.10;99.90;;;;;;4918597;29;20032;-82
2022/12/13 05:51:11;;;;;;;1999.90;999.90;;;-1.10;99.90;;;;;;4918678;29;20060;-82
2022/12/13 05:53:38;;;;;;;1999.90;999.90;;;-1.10;99.90;;;;;;4917766;29;20031;-80
2022/12/13 05:56:04;;;;;;;1999.90;999.90;;;-1.10;99.90;;;;;;4918519;29;20439;-80
2022/12/13 05:58:29;;;;;;;1999.90;999.90;;;-1.20;99.90;;;;;;4919175;29;20115;-81
2022/12/13 06:01:04;;;;;;;1999.90;999.90;;;-1.20;99.90;;;;;;4919324;29;20083;-82
2022/12/13 06:03:30;;;;;;;1999.90;999.90;;;-1.20;99.90;;;;;;4918274;29;20028;-82
2022/12/13 06:05:59;;;;;;;1999.90;999.90;;;-1.20;99.90;;;;;;4901400;29;20043;-82
2022/12/13 06:08:24;;;;;;;1999.90;999.90;;;-1.20;99.90;;;;;;4918743;29;20167;-82
2022/12/13 06:10:55;;;;;;;1999.90;999.90;;;-1.20;99.90;;;;;;4918167;29;20501;-81
2022/12/13 06:13:21;;;;;;;1999.90;999.90;;;-1.20;99.90;;;;;;4901135;29;20024;-81
2022/12/13 06:15:46;;;;;;;1999.90;999.90;;;-1.20;99.90;;;;;;4901235;29;20400;-81
2022/12/13 06:18:12;;;;;;;1999.90;999.90;;;-1.20;99.90;;;;;;4918480;29;20035;-82
2022/12/13 06:20:38;;;;;;;1999.90;999.90;;;-1.30;99.90;;;;;;4917819;29;20030;-81
2022/12/13 06:23:03;;;;;;;1999.90;999.90;;;-1.30;99.90;;;;;;4918369;29;20111;-81
2022/12/13 06:25:29;;;;;;;1999.90;999.90;;;-1.30;99.90;;;;;;4922375;29;20033;-81
2022/12/13 06:27:54;;;;;;;1999.90;999.90;;;-1.30;99.90;;;;;;4937170;29;20047;-81
2022/12/13 06:30:20;;;;;;;1999.90;999.90;;;-1.30;99.90;;;;;;4919977;29;20185;-81
2022/12/13 06:32:49;;;;;;;1999.90;999.90;;;-1.30;99.90;;;;;;4937175;29;20554;-81
2022/12/13 06:35:15;;;;;;;1999.90;999.90;;;-1.30;99.90;;;;;;4937050;29;20047;-81
2022/12/13 06:37:41;;;;;;;1999.90;999.90;;;-1.30;99.90;;;;;;4936953;29;20026;-81
2022/12/13 06:40:07;;;;;;;1999.90;999.90;;;-1.30;99.90;;;;;;4937186;29;20110;-87
2022/12/13 06:42:32;;;;;;;1999.90;999.90;;;-1.30;99.90;;;;;;4913777;29;20036;-84
2022/12/13 06:44:58;;;;;;;1999.90;999.90;;;-1.40;99.90;;;;;;4900132;29;20472;-80
2022/12/13 06:47:24;;;;;;;1999.90;999.90;;;-1.40;99.90;;;;;;4922245;29;20423;-80
2022/12/13 06:49:50;;;;;;;1999.90;999.90;;;-1.40;99.90;;;;;;4936918;29;20038;-82
2022/12/13 06:52:16;;;;;;;1999.90;999.90;;;-1.40;99.90;;;;;;4919894;29;20396;-84
2022/12/13 06:54:42;;;;;;;1999.90;999.90;;;-1.40;99.90;;;;;;4917779;29;20542;-83
2022/12/13 06:57:08;;;;;;;1999.90;999.90;;;-1.40;99.90;;;;;;4917621;29;20581;-84
2022/12/13 06:59:34;;;;;;;1999.90;999.90;;;-1.40;99.90;;;;;;4917645;29;20076;-84
2022/12/13 07:02:00;;;;;;;1999.90;999.90;;;-1.40;99.90;;;;;;4932084;29;20102;-84
2022/12/13 07:04:32;;;;;;;1999.90;999.90;;;-1.50;99.90;;;;;;5068959;28;20367;-72
2022/12/13 07:06:58;;;;;;;1999.90;999.90;;;-1.40;99.90;;;;;;5065512;28;20098;-71
2022/12/13 07:09:24;;;;;;;1999.90;999.90;;;-1.40;99.90;;;;;;5067324;28;20025;-71
2022/12/13 07:11:49;;;;;;;1999.90;999.90;;;-1.40;99.90;;;;;;5065089;28;20063;-71
2022/12/13 07:14:15;;;;;;;1999.90;999.90;;;-1.40;99.90;;;;;;5066068;28;20031;-75
2022/12/13 07:16:40;;;;;;;1999.90;999.90;;;-1.40;99.90;;;;;;5066764;28;20484;-71
2022/12/13 07:19:06;;;;;;;1999.90;999.90;;;-1.40;99.90;;;;;;5068375;28;20029;-71
2022/12/13 07:21:32;;;;;;;1999.90;999.90;;;-1.40;99.90;;;;;;5067244;28;20124;-71
2022/12/13 07:23:57;;;;;;;1999.90;999.90;;;-1.50;99.90;;;;;;5067587;28;20132;-71
2022/12/13 07:26:24;;;;;;;1999.90;999.90;;;-1.50;99.90;;;;;;5072587;28;20094;-75
2022/12/13 07:28:50;;;;;;;1999.90;999.90;;;-1.40;99.90;;;;;;5071897;28;20042;-72
2022/12/13 07:31:16;;;;;;;1999.90;999.90;;;-1.50;99.90;;;;;;5068264;28;20021;-71
2022/12/13 07:33:41;;;;;;;1999.90;999.90;;;-1.50;99.90;;;;;;5065867;28;20052;-75
2022/12/13 07:36:11;;;;;;;1999.90;999.90;;;-1.50;99.90;;;;;;5068286;28;20068;-71
2022/12/13 07:38:37;;;;;;;1999.90;999.90;;;-1.50;99.90;;;;;;5073615;28;20094;-75
2022/12/13 07:41:05;;;;;;;1999.90;999.90;;;-1.50;99.90;;;;;;5065316;28;20496;-75
2022/12/13 07:43:31;;;;;;;1999.90;999.90;;;-1.50;99.90;;;;;;5073028;28;20147;-71
2022/12/13 07:45:58;;;;;;;1999.90;999.90;;;-1.50;99.90;;;;;;5070053;28;20107;-71
2022/12/13 07:48:25;;;;;;;1999.90;999.90;;;-1.40;99.90;;;;;;5065969;28;20017;-71
2022/12/13 07:50:51;;;;;;;1999.90;999.90;;;-1.40;99.90;;;;;;5065267;28;20020;-71
2022/12/13 07:53:17;;;;;;;1999.90;999.90;;;-1.40;99.90;;;;;;5068364;28;20462;-75
2022/12/13 07:55:42;;;;;;;1999.90;999.90;;;-1.40;99.90;;;;;;5065003;28;20107;-75
2022/12/13 07:58:10;;;;;;;1999.90;999.90;;;-1.40;99.90;;;;;;5066539;28;20025;-71
2022/12/13 08:00:41;;;;;;;1999.90;999.90;;;-1.40;99.90;;;;;;5065598;28;20029;-71
2022/12/13 08:03:06;;;;;;;1999.90;999.90;;;-1.40;99.90;;;;;;5065616;28;20094;-71
2022/12/13 08:05:33;;;;;;;1999.90;999.90;;;-1.40;99.90;;;;;;5060886;28;20029;-76
2022/12/13 08:07:59;;;;;;;1999.90;999.90;;;-1.30;99.90;;;;;;5066616;28;20117;-76
2022/12/13 08:10:25;;;;;;;1999.90;999.90;;;-1.30;99.90;;;;;;5065529;28;20060;-71
2022/12/13 08:12:51;;;;;;;1999.90;999.90;;;-1.20;99.90;;;;;;5058006;28;20511;-71
2022/12/13 08:15:16;;;;;;;1999.90;999.90;;;-1.20;99.90;;;;;;5045927;28;20139;-71
2022/12/13 08:17:42;;;;;;;1999.90;999.90;;;-1.10;99.90;;;;;;5044715;28;20037;-76
2022/12/13 08:20:08;;;;;;;1999.90;999.90;;;-1.10;99.90;;;;;;5051497;28;20046;-75
2022/12/13 08:22:34;;;;;;;1999.90;999.90;;;-1.00;99.90;;;;;;5052241;28;20025;-71
2022/12/13 08:24:59;;;;;;;1999.90;999.90;;;-1.00;99.90;;;;;;5050997;28;20048;-71
2022/12/13 08:27:26;;;;;;;1999.90;999.90;;;-0.90;99.90;;;;;;5051642;28;20807;-71
2022/12/13 08:29:52;;;;;;;1999.90;999.90;;;-0.90;99.90;;;;;;5051976;28;20064;-71
2022/12/13 08:32:18;;;;;;;1999.90;999.90;;;-0.80;99.90;;;;;;5051049;28;20502;-76
2022/12/13 08:34:44;;;;;;;1999.90;999.90;;;-0.70;99.90;;;;;;5051906;28;20112;-75
2022/12/13 08:37:11;;;;;;;1999.90;999.90;;;-0.60;99.90;;;;;;5051992;28;20159;-71
2022/12/13 08:39:38;;;;;;;1999.90;999.90;;;-0.50;99.90;;;;;;5051320;28;20032;-78
2022/12/13 08:42:12;;;;;;;1999.90;999.90;;;-0.20;99.90;;;;;;5050677;28;20055;-72
2022/12/13 08:44:38;;;;;;;1999.90;999.90;;;0.10;99.90;;;;;;5051369;28;20442;-72
2022/12/13 08:47:04;;;;;;;1999.90;999.90;;;0.00;99.90;;;;;;5065355;28;20021;-76
2022/12/13 08:49:30;;;;;;;1999.90;999.90;;;0.20;99.90;;;;;;5051077;28;20033;-72
2022/12/13 08:51:55;;;;;;;1999.90;999.90;;;0.30;99.90;;;;;;5050839;28;20037;-72
2022/12/13 08:54:21;;;;;;;1999.90;999.90;;;0.20;99.90;;;;;;5044809;28;20037;-72
2022/12/13 08:56:47;;;;;;;1999.90;999.90;;;0.30;99.90;;;;;;5060623;28;20043;-79
2022/12/13 08:59:13;;;;;;;1999.90;999.90;;;0.20;99.90;;;;;;5070256;28;20139;-75
2022/12/13 09:01:39;;;;;;;1999.90;999.90;;;0.10;99.90;;;;;;5063213;28;20518;-72
2022/12/13 09:04:04;;;;;;;1999.90;999.90;;;0.10;99.90;;;;;;5050802;28;20053;-72
2022/12/13 09:06:30;;;;;;;1999.90;999.90;;;0.10;99.90;;;;;;5052162;28;20035;-72
2022/12/13 09:08:56;;;;;;;1999.90;999.90;;;0.10;99.90;;;;;;5058724;28;20112;-72
2022/12/13 09:11:22;;;;;;;1999.90;999.90;;;0.10;99.90;;;;;;5053840;28;20091;-72
2022/12/13 09:13:48;;;;;;;1999.90;999.90;;;0.10;99.90;;;;;;5059222;28;20039;-76
2022/12/13 09:16:18;;;;;;;1999.90;999.90;;;0.10;99.90;;;;;;5056932;28;20025;-72
2022/12/13 09:18:45;;;;;;;1999.90;999.90;;;0.10;99.90;;;;;;5064699;28;20399;-71
2022/12/13 09:21:12;;;;;;;1999.90;999.90;;;0.20;99.90;;;;;;5049705;28;20025;-71
2022/12/13 09:23:40;;;;;;;1999.90;999.90;;;0.30;99.90;;;;;;5056984;28;20039;-75
2022/12/13 09:26:07;;;;;;;1999.90;999.90;;;0.20;99.90;;;;;;5062201;28;20020;-72
2022/12/13 09:28:35;;;;;;;1999.90;999.90;;;0.30;99.90;;;;;;5056047;28;20025;-71
2022/12/13 09:31:13;;;;;;;1999.90;999.90;;;0.40;99.90;;;;;;5050268;28;20047;-71
2022/12/13 09:33:39;;;;;;;1999.90;999.90;;;0.50;99.90;;;;;;5061823;28;20068;-71
2022/12/13 09:36:07;;;;;;;1999.90;999.90;;;0.50;99.90;;;;;;5052357;28;20067;-76
2022/12/13 09:38:35;;;;;;;1999.90;999.90;;;0.60;99.90;;;;;;5068669;28;20037;-77
2022/12/13 09:41:27;;;;;;;1999.90;999.90;;;0.60;99.90;;;;;;5044474;28;20060;-71
2022/12/13 09:44:18;;;;;;;1999.90;999.90;;;0.50;99.90;;;;;;5066429;28;20029;-71
2022/12/13 09:46:45;;;;;;;1999.90;999.90;;;0.60;99.90;;;;;;5036877;28;20031;-71
2022/12/13 09:49:20;;;;;;;1999.90;999.90;;;0.70;99.90;;;;;;5062601;28;20056;-76
2022/12/13 09:51:51;;;;;;;1999.90;999.90;;;0.70;99.90;;;;;;5051535;28;20029;-76
2022/12/13 09:54:19;;;;;;;1999.90;999.90;;;0.90;99.90;;;;;;5051334;28;20481;-72
2022/12/13 09:56:49;;;;;;;1999.90;999.90;;;0.90;99.90;;;;;;5051217;28;20025;-72
2022/12/13 09:59:16;;;;;;;1999.90;999.90;;;1.00;99.90;;;;;;5045348;28;20431;-72
2022/12/13 10:01:41;;;;;;;1999.90;999.90;;;1.10;99.90;;;;;;5049840;28;20082;-76
2022/12/13 10:04:12;;;;;;;1999.90;999.90;;;1.20;99.90;;;;;;5051220;28;20048;-76
2022/12/13 10:06:37;;;;;;;1999.90;999.90;;;1.30;99.90;;;;;;5049715;28;20036;-72
2022/12/13 10:09:08;;;;;;;1999.90;999.90;;;1.40;99.90;;;;;;5049431;28;20029;-72
2022/12/13 10:11:34;;;;;;;1999.90;999.90;;;1.30;99.90;;;;;;5048785;28;20036;-72
2022/12/13 10:14:15;;;;;;;1999.90;999.90;;;1.20;99.90;;;;;;5050424;28;20086;-72
2022/12/13 10:16:45;;;;;;;1999.90;999.90;;;1.30;99.90;;;;;;5049406;28;20106;-76
2022/12/13 10:19:16;;;;;;;1999.90;999.90;;;1.50;99.90;;;;;;5048152;28;20036;-76
2022/12/13 10:21:44;;;;;;;1999.90;999.90;;;1.50;99.90;;;;;;5049202;28;20715;-72
2022/12/13 10:24:20;;;;;;;1999.90;999.90;;;1.70;99.90;;;;;;5052312;28;20025;-72
2022/12/13 10:26:46;;;;;;;1999.90;999.90;;;1.80;99.90;;;;;;5048679;28;20078;-72
2022/12/13 10:29:12;;;;;;;1999.90;999.90;;;1.80;99.90;;;;;;5048111;28;20025;-76
2022/12/13 10:31:47;;;;;;;1999.90;999.90;;;1.70;99.90;;;;;;5049501;28;20503;-77
2022/12/13 10:34:25;;;;;;;1999.90;999.90;;;1.70;99.90;;;;;;5049315;28;20021;-73
2022/12/13 10:36:52;;;;;;;1999.90;999.90;;;1.60;99.90;;;;;;5047318;28;20025;-72
2022/12/13 10:39:36;;;;;;;1999.90;999.90;;;1.50;99.90;;;;;;5044737;28;20566;-72
2022/12/13 10:42:05;;;;;;;1999.90;999.90;;;1.60;99.90;;;;;;5047952;28;20029;-76
2022/12/13 10:44:31;;;;;;;1999.90;999.90;;;2.10;99.90;;;;;;5051073;28;20033;-77
2022/12/13 10:47:12;;;;;;;1999.90;999.90;;;2.20;99.90;;;;;;5057623;28;20449;-72
2022/12/13 10:49:56;;;;;;;1999.90;999.90;;;2.20;99.90;;;;;;5051538;28;20484;-72
2022/12/13 10:52:34;;;;;;;1999.90;999.90;;;2.40;99.90;;;;;;5050286;28;20025;-72
2022/12/13 10:55:06;;;;;;;1999.90;999.90;;;2.50;99.90;;;;;;5050784;28;20043;-76
2022/12/13 10:57:32;;;;;;;1999.90;999.90;;;2.70;99.90;;;;;;5050787;28;20115;-77
2022/12/13 10:59:58;;;;;;;1999.90;999.90;;;2.90;99.90;;;;;;5050541;28;20442;-72
2022/12/13 11:02:52;;;;;;;1999.90;999.90;;;2.60;99.90;;;;;;5052059;28;20036;-74
2022/12/13 11:05:23;;;;;;;1999.90;999.90;;;2.50;99.90;;;;;;5047232;28;20028;-72
2022/12/13 11:07:49;;;;;;;1999.90;999.90;;;2.70;99.90;;;;;;5049813;28;20025;-77
2022/12/13 11:10:24;;;;;;;1999.90;999.90;;;2.80;99.90;;;;;;5048741;28;20105;-76
2022/12/13 11:12:52;;;;;;;1999.90;999.90;;;3.00;99.90;;;;;;5049068;28;20116;-72
2022/12/13 11:15:24;;;;;;;1999.90;999.90;;;3.10;99.90;;;;;;5039602;28;20029;-77
2022/12/13 11:17:57;;;;;;;1999.90;999.90;;;3.20;99.90;;;;;;5052816;28;20488;-72
2022/12/13 11:20:29;;;;;;;1999.90;999.90;;;3.30;99.90;;;;;;5048003;28;20029;-72
2022/12/13 11:23:26;;;;;;;1999.90;999.90;;;3.10;99.90;;;;;;5048799;28;20056;-76
2022/12/13 11:26:01;;;;;;;1999.90;999.90;;;2.90;99.90;;;;;;5047895;28;20029;-76
2022/12/13 11:28:45;;;;;;;1999.90;999.90;;;2.80;99.90;;;;;;5040177;28;20107;-72
2022/12/13 11:31:34;;;;;;;1999.90;999.90;;;3.30;99.90;;;;;;5047915;28;20087;-72
2022/12/13 11:34:11;;;;;;;1999.90;999.90;;;3.60;99.90;;;;;;5048020;28;20036;-77
2022/12/13 11:37:01;;;;;;;1999.90;999.90;;;3.50;99.90;;;;;;5050823;28;20064;-72
2022/12/13 11:39:32;;;;;;;1999.90;999.90;;;3.40;99.90;;;;;;5041825;28;20037;-72
2022/12/13 11:42:25;;;;;;;1999.90;999.90;;;3.50;99.90;;;;;;5044671;28;20063;-74
2022/12/13 11:44:57;;;;;;;1999.90;999.90;;;3.50;99.90;;;;;;5045718;28;20500;-72
2022/12/13 11:47:27;;;;;;;1999.90;999.90;;;3.70;99.90;;;;;;5046972;28;20400;-77
2022/12/13 11:49:55;;;;;;;1999.90;999.90;;;3.70;99.90;;;;;;5046320;28;20106;-73
2022/12/13 11:52:29;;;;;;;1999.90;999.90;;;4.00;99.90;;;;;;5044461;28;20385;-72
2022/12/13 11:55:18;;;;;;;1999.90;999.90;;;4.20;99.90;;;;;;5043588;28;20044;-73
2022/12/13 11:58:12;;;;;;;1999.90;999.90;;;3.60;99.90;;;;;;5050809;28;20043;-72
2022/12/13 12:00:55;;;;;;;1999.90;999.90;;;3.40;99.90;;;;;;5053053;28;20044;-79
2022/12/13 12:03:46;;;;;;;1999.90;999.90;;;3.30;99.90;;;;;;5054497;28;20055;-72
2022/12/13 12:06:22;;;;;;;1999.90;999.90;;;3.30;99.90;;;;;;5053080;28;20040;-72
2022/12/13 12:09:00;;;;;;;1999.90;999.90;;;2.80;99.90;;;;;;5042271;28;20515;-72
2022/12/13 12:11:43;;;;;;;1999.90;999.90;;;2.90;99.90;;;;;;5050573;28;20083;-77
2022/12/13 12:14:15;;;;;;;1999.90;999.90;;;2.90;99.90;;;;;;5049684;28;20033;-77
2022/12/13 12:16:54;;;;;;;1999.90;999.90;;;3.10;99.90;;;;;;5052378;28;20059;-72
2022/12/13 12:19:22;;;;;;;1999.90;999.90;;;3.00;99.90;;;;;;5053311;28;20028;-72